Time;durP1;ratioP1;P1;durP2;ratioP2;P2;SDS_P1;SDS_P2;PMS_P1;PMS_P2;Temp;Humidity;BMP_temperature;BMP_pressure;BME280_temperature;BME280_humidity;BME280_pressure;Samples;Min_cycle;Max_cycle;Signal;HPM_P1;HPM_P2
2023/05/20 00:00:55;;;;;;;8.20;6.10;;;;;;;10.15;85.34;96199.24;106640;1275;24331;-63
2023/05/20 00:03:23;;;;;;;7.80;6.00;;;;;;;10.08;85.45;96190.87;106667;1275;22539;-63
2023/05/20 00:05:52;;;;;;;10.10;6.70;;;;;;;10.02;85.47;96185.45;106680;1275;24383;-62
2023/05/20 00:08:20;;;;;;;8.50;6.20;;;;;;;9.95;86.13;96187.44;106615;1275;25472;-62
2023/05/20 00:10:49;;;;;;;8.70;6.20;;;;;;;9.92;87.19;96188.70;106560;1275;25494;-63
2023/05/20 00:13:17;;;;;;;6.90;5.80;;;;;;;9.97;87.48;96178.27;106633;1275;24423;-62
2023/05/20 00:15:45;;;;;;;10.70;6.10;;;;;;;10.01;87.34;96185.29;106613;1275;24307;-62
2023/05/20 00:18:13;;;;;;;7.30;5.50;;;;;;;10.02;87.14;96182.48;106614;1275;22676;-62
2023/05/20 00:20:42;;;;;;;10.30;5.60;;;;;;;9.95;86.54;96178.30;106645;1275;22529;-63
2023/05/20 00:23:10;;;;;;;9.40;5.90;;;;;;;9.96;86.53;96181.64;106626;1275;24206;-62
2023/05/20 00:25:38;;;;;;;9.80;5.40;;;;;;;10.00;86.55;96180.02;106628;1275;22498;-62
2023/05/20 00:28:06;;;;;;;7.60;5.80;;;;;;;9.98;86.67;96177.76;106582;1275;24220;-63
2023/05/20 00:30:35;;;;;;;9.20;5.40;;;;;;;10.06;86.75;96180.15;106619;1275;22740;-63
2023/05/20 00:33:03;;;;;;;7.80;5.70;;;;;;;10.05;86.00;96180.70;106588;1275;22636;-63
2023/05/20 00:35:31;;;;;;;7.50;6.10;;;;;;;9.98;85.68;96182.33;106630;1275;25455;-63
2023/05/20 00:38:00;;;;;;;9.80;6.00;;;;;;;9.93;85.71;96178.32;106688;1275;22512;-63
2023/05/20 00:40:28;;;;;;;8.60;5.80;;;;;;;9.89;85.38;96177.65;106602;1275;22520;-63
2023/05/20 00:42:56;;;;;;;9.10;5.90;;;;;;;9.91;85.85;96177.98;106571;1275;22517;-63
2023/05/20 00:45:25;;;;;;;7.70;6.10;;;;;;;9.94;85.73;96174.63;106657;1275;23146;-63
2023/05/20 00:47:58;;;;;;;10.30;6.50;;;;;;;9.95;85.86;96173.73;106669;1275;23754;-63
2023/05/20 00:50:26;;;;;;;;;;;;;;;9.90;85.13;96176.75;106651;1275;25370;-63
2023/05/20 00:52:54;;;;;;;12.20;6.70;;;;;;;9.81;85.15;96176.11;106596;1275;22525;-62
2023/05/20 00:55:24;;;;;;;9.50;6.60;;;;;;;9.80;85.44;96172.77;106668;1275;23005;-63
2023/05/20 00:57:53;;;;;;;10.40;7.30;;;;;;;9.75;85.99;96172.98;106600;1275;22524;-62
2023/05/20 01:00:21;;;;;;;9.40;6.70;;;;;;;9.68;86.32;96173.90;106633;1275;24363;-63
2023/05/20 01:02:50;;;;;;;8.40;6.70;;;;;;;9.67;86.67;96168.11;106638;1275;22938;-63
2023/05/20 01:05:18;;;;;;;11.00;7.30;;;;;;;9.66;86.37;96167.94;106651;1275;24439;-62
2023/05/20 01:07:46;;;;;;;10.50;7.80;;;;;;;9.66;86.30;96163.55;106609;1275;25345;-63
2023/05/20 01:10:15;;;;;;;9.20;6.60;;;;;;;9.65;86.01;96162.67;106577;1275;22795;-63
2023/05/20 01:12:53;;;;;;;9.30;7.00;;;;;;;9.59;85.61;96160.95;106656;1275;22651;-63
2023/05/20 01:15:24;;;;;;;8.70;6.50;;;;;;;9.51;85.93;96162.40;106652;1254;25501;-63
2023/05/20 01:18:00;;;;;;;11.00;7.30;;;;;;;9.44;86.17;96160.50;106642;1275;24250;-62
2023/05/20 01:20:31;;;;;;;13.20;7.70;;;;;;;9.43;85.88;96163.51;106707;1275;24186;-63
2023/05/20 01:23:00;;;;;;;8.70;6.50;;;;;;;9.44;85.92;96162.79;106621;1275;23967;-63
2023/05/20 01:25:28;;;;;;;10.80;6.70;;;;;;;9.47;85.77;96160.84;106702;1275;25259;-63
2023/05/20 01:27:56;;;;;;;8.20;5.50;;;;;;;9.41;86.10;96157.36;106633;1275;23010;-63
2023/05/20 01:30:34;;;;;;;9.60;6.50;;;;;;;9.32;86.57;96158.29;106649;1275;22643;-63
2023/05/20 01:33:11;;;;;;;13.30;6.30;;;;;;;9.24;87.19;96163.23;106589;1275;22521;-63
2023/05/20 01:35:40;;;;;;;8.50;6.60;;;;;;;9.26;87.56;96162.70;106668;1275;24417;-62
2023/05/20 01:38:10;;;;;;;6.90;5.50;;;;;;;9.28;86.93;96164.96;106667;1275;24208;-63
2023/05/20 01:40:40;;;;;;;7.30;5.50;;;;;;;9.28;86.53;96163.58;106702;1275;25393;-63
2023/05/20 01:43:09;;;;;;;9.90;5.50;;;;;;;9.32;86.60;96156.88;106594;1275;22629;-63
2023/05/20 01:45:41;;;;;;;8.50;5.60;;;;;;;9.32;86.76;96160.58;106644;1275;22514;-63
2023/05/20 01:48:13;;;;;;;8.40;6.00;;;;;;;9.32;86.57;96156.35;106632;1275;24347;-63
2023/05/20 01:50:41;;;;;;;7.70;5.50;;;;;;;9.32;86.34;96155.48;106597;1275;24005;-62
2023/05/20 01:53:12;;;;;;;10.00;5.80;;;;;;;9.33;86.23;96150.55;106656;1275;25198;-63
2023/05/20 01:55:41;;;;;;;12.70;5.30;;;;;;;9.23;85.89;96149.02;106659;1275;25465;-63
2023/05/20 01:58:10;;;;;;;7.00;5.10;;;;;;;9.18;86.10;96149.39;106627;1275;22809;-63
2023/05/20 02:00:38;;;;;;;7.30;5.40;;;;;;;9.14;86.19;96146.78;106626;1275;25204;-62
2023/05/20 02:03:06;;;;;;;6.30;5.10;;;;;;;9.10;86.10;96148.20;106647;1275;22773;-63
2023/05/20 02:05:36;;;;;;;9.50;5.70;;;;;;;9.13;86.18;96142.73;106660;1275;22517;-63
2023/05/20 02:08:05;;;;;;;7.50;5.80;;;;;;;9.15;86.64;96145.20;106588;1275;24341;-62
2023/05/20 02:10:33;;;;;;;11.50;8.10;;;;;;;9.14;86.75;96148.55;106729;1275;25385;-63
2023/05/20 02:13:01;;;;;;;13.60;7.40;;;;;;;9.13;86.94;96152.23;106633;1275;22724;-62
2023/05/20 02:15:30;;;;;;;9.80;7.00;;;;;;;9.15;86.82;96148.70;106703;1275;22525;-62
2023/05/20 02:17:59;;;;;;;10.90;7.60;;;;;;;9.17;86.53;96150.29;106656;1275;22566;-63
2023/05/20 02:20:27;;;;;;;10.50;7.20;;;;;;;9.16;86.15;96151.16;106673;1275;22596;-62
2023/05/20 02:22:56;;;;;;;10.20;7.60;;;;;;;9.05;85.51;96155.40;106673;1275;22524;-62
2023/05/20 02:25:24;;;;;;;8.70;6.80;;;;;;;9.02;85.72;96158.77;106598;1275;22523;-63
2023/05/20 02:27:52;;;;;;;8.60;6.90;;;;;;;8.99;85.93;96159.99;106545;1275;22527;-62
2023/05/20 02:30:20;;;;;;;10.60;7.40;;;;;;;8.94;85.73;96159.48;106633;1275;25490;-62
2023/05/20 02:32:48;;;;;;;10.50;7.00;;;;;;;8.94;85.84;96155.29;106613;1275;22630;-62
2023/05/20 02:35:16;;;;;;;8.10;6.60;;;;;;;8.92;85.47;96154.05;106679;1275;22531;-62
2023/05/20 02:37:45;;;;;;;7.50;5.80;;;;;;;8.80;85.50;96154.27;106680;1275;22632;-62
2023/05/20 02:40:13;;;;;;;10.80;7.00;;;;;;;8.72;85.54;96153.77;106615;1275;22535;-62
2023/05/20 02:42:41;;;;;;;9.70;7.20;;;;;;;8.70;85.93;96149.55;106589;1275;25427;-62
2023/05/20 02:45:10;;;;;;;8.50;6.60;;;;;;;8.75;86.21;96149.89;106595;1275;22531;-62
2023/05/20 02:47:39;;;;;;;10.20;6.50;;;;;;;8.81;86.50;96151.27;106637;1275;25330;-62
2023/05/20 02:50:08;;;;;;;12.70;7.00;;;;;;;8.84;86.55;96147.77;106653;1275;24376;-62
2023/05/20 02:52:38;;;;;;;9.80;6.90;;;;;;;8.85;86.69;96146.02;106681;1275;24316;-62
2023/05/20 02:55:08;;;;;;;11.20;5.80;;;;;;;8.86;86.54;96142.33;106673;1275;22514;-62
2023/05/20 02:57:37;;;;;;;9.90;6.70;;;;;;;8.93;86.75;96138.96;106678;1275;24040;-63
2023/05/20 03:00:12;;;;;;;8.00;5.60;;;;;;;8.98;86.55;96139.82;106656;1275;25223;-62
2023/05/20 03:02:40;;;;;;;13.70;7.00;;;;;;;8.97;86.32;96141.94;106558;1275;23403;-63
2023/05/20 03:05:09;;;;;;;8.90;6.10;;;;;;;8.99;86.08;96144.55;106597;1266;22500;-63
2023/05/20 03:07:37;;;;;;;10.00;5.60;;;;;;;9.00;86.07;96145.60;106653;1275;24352;-63
2023/05/20 03:10:08;;;;;;;9.50;6.00;;;;;;;8.98;85.72;96148.08;106600;1260;22510;-62
2023/05/20 03:12:38;;;;;;;10.90;6.20;;;;;;;8.99;85.99;96154.39;106657;1275;25503;-62
2023/05/20 03:15:07;;;;;;;7.70;5.70;;;;;;;9.00;85.87;96152.62;106645;1275;25229;-62
2023/05/20 03:17:35;;;;;;;13.20;6.10;;;;;;;8.94;85.60;96156.52;106631;1275;24254;-63
2023/05/20 03:20:06;;;;;;;9.70;6.00;;;;;;;8.94;86.01;96155.63;106582;1275;22564;-62
2023/05/20 03:22:34;;;;;;;10.00;5.50;;;;;;;9.01;86.46;96157.54;106647;1275;25780;-62
2023/05/20 03:25:04;;;;;;;10.40;6.10;;;;;;;9.05;86.56;96162.43;106618;1275;26628;-63
2023/05/20 03:27:33;;;;;;;7.70;5.50;;;;;;;8.98;86.70;96165.97;106643;1275;22934;-63
2023/05/20 03:30:03;;;;;;;6.80;5.50;;;;;;;8.98;87.00;96171.06;106662;1275;24531;-63
2023/05/20 03:32:32;;;;;;;8.40;5.80;;;;;;;8.97;86.70;96169.13;106668;1275;22539;-63
2023/05/20 03:35:00;;;;;;;9.40;5.80;;;;;;;9.00;87.10;96171.58;106650;1275;22954;-62
2023/05/20 03:37:28;;;;;;;7.50;5.30;;;;;;;9.02;87.13;96170.17;106574;1275;25388;-63
2023/05/20 03:39:57;;;;;;;12.70;5.90;;;;;;;9.06;88.21;96178.40;106605;1275;22622;-63
2023/05/20 03:42:25;;;;;;;8.40;5.90;;;;;;;9.11;87.99;96182.95;106680;1275;22524;-63
2023/05/20 03:44:53;;;;;;;7.30;5.50;;;;;;;9.18;87.88;96186.97;106696;1275;25315;-63
2023/05/20 03:47:22;;;;;;;8.20;5.80;;;;;;;9.26;88.20;96183.59;106614;1275;22540;-62
2023/05/20 03:49:50;;;;;;;12.10;6.00;;;;;;;9.34;88.12;96187.07;106592;1275;22524;-62
2023/05/20 03:52:18;;;;;;;10.50;6.00;;;;;;;9.43;88.90;96190.90;106631;1275;23000;-63
2023/05/20 03:54:46;;;;;;;8.50;6.20;;;;;;;9.52;88.58;96198.23;106592;1275;24201;-62
2023/05/20 03:57:14;;;;;;;12.30;8.00;;;;;;;9.60;87.91;96200.13;106593;1275;22537;-62
2023/05/20 03:59:43;;;;;;;12.50;10.20;;;;;;;9.66;88.41;96196.93;106718;1275;22543;-62
2023/05/20 04:02:11;;;;;;;13.80;11.10;;;;;;;9.80;88.36;96197.91;106611;1275;25334;-62
2023/05/20 04:04:42;;;;;;;15.50;10.60;;;;;;;9.94;88.15;96195.70;106682;1275;24711;-62
2023/05/20 04:07:11;;;;;;;14.60;10.40;;;;;;;10.07;88.02;96194.73;106655;1275;23138;-62
2023/05/20 04:09:39;;;;;;;15.40;11.00;;;;;;;10.15;87.70;96195.55;106671;1273;25389;-62
2023/05/20 04:12:08;;;;;;;12.00;9.30;;;;;;;10.25;87.48;96200.25;106671;1275;24361;-62
2023/05/20 04:14:37;;;;;;;11.60;9.30;;;;;;;10.33;87.24;96203.90;106627;1275;24261;-62
2023/05/20 04:17:05;;;;;;;12.20;8.80;;;;;;;10.36;87.05;96207.40;106612;1275;22511;-62
2023/05/20 04:19:35;;;;;;;16.60;8.90;;;;;;;10.37;86.86;96205.98;106603;1275;23919;-62
2023/05/20 04:22:03;;;;;;;12.90;9.00;;;;;;;10.44;87.04;96207.16;106598;1275;22531;-62
2023/05/20 04:24:31;;;;;;;11.30;9.30;;;;;;;10.49;87.01;96205.54;106602;1275;22524;-62
2023/05/20 04:27:00;;;;;;;13.90;9.00;;;;;;;10.53;87.08;96207.78;106683;1275;25536;-62
2023/05/20 04:29:33;;;;;;;14.10;9.30;;;;;;;10.59;87.20;96202.46;106706;1275;22524;-62
2023/05/20 04:32:02;;;;;;;12.50;8.50;;;;;;;10.66;87.30;96204.68;106655;1275;24377;-62
2023/05/20 04:34:33;;;;;;;14.30;9.10;;;;;;;10.72;87.36;96207.77;106617;1263;24186;-62
2023/05/20 04:37:03;;;;;;;14.40;9.60;;;;;;;10.78;87.09;96204.20;106685;1275;24345;-62
2023/05/20 04:39:31;;;;;;;12.90;9.50;;;;;;;10.83;87.20;96201.52;106664;1275;25395;-62
2023/05/20 04:42:01;;;;;;;10.50;8.40;;;;;;;10.90;87.01;96200.58;106588;1275;23021;-62
2023/05/20 04:44:29;;;;;;;11.40;9.00;;;;;;;10.97;87.01;96202.61;106634;1275;22525;-62
2023/05/20 04:46:58;;;;;;;14.30;9.80;;;;;;;11.04;87.12;96200.08;106602;1275;24177;-62
2023/05/20 04:49:29;;;;;;;12.90;9.20;;;;;;;11.12;86.86;96196.48;106634;1275;22543;-62
2023/05/20 04:51:58;;;;;;;12.70;9.00;;;;;;;11.18;86.76;96194.30;106665;1275;24376;-62
2023/05/20 04:54:26;;;;;;;12.40;8.70;;;;;;;11.24;86.70;96187.18;106584;1275;23899;-62
2023/05/20 04:56:54;;;;;;;14.00;8.20;;;;;;;11.35;86.90;96188.63;106684;1275;22531;-62
2023/05/20 04:59:22;;;;;;;13.20;8.50;;;;;;;11.51;87.18;96188.25;106644;1275;24341;-62
2023/05/20 05:01:51;;;;;;;12.00;8.00;;;;;;;11.68;86.74;96185.74;106653;1275;22507;-62
2023/05/20 05:04:19;;;;;;;12.40;8.00;;;;;;;11.83;86.74;96182.02;106599;1273;22791;-62
2023/05/20 05:06:49;;;;;;;13.00;8.40;;;;;;;11.99;86.65;96180.22;106625;1275;25329;-62
2023/05/20 05:09:17;;;;;;;13.60;9.10;;;;;;;12.14;86.08;96178.59;106620;1275;22806;-62
2023/05/20 05:11:46;;;;;;;14.10;8.90;;;;;;;12.26;85.37;96177.33;106690;1275;25211;-62
2023/05/20 05:14:15;;;;;;;15.30;9.10;;;;;;;12.41;85.29;96177.46;106582;1275;22518;-62
2023/05/20 05:16:44;;;;;;;13.30;8.20;;;;;;;12.54;84.69;96175.30;106649;1275;22520;-62
2023/05/20 05:19:12;;;;;;;14.20;8.00;;;;;;;12.73;85.31;96179.90;106676;1275;23742;-62
2023/05/20 05:21:41;;;;;;;12.10;9.10;;;;;;;12.94;85.26;96175.48;106686;1275;24380;-63
2023/05/20 05:24:09;;;;;;;12.50;9.20;;;;;;;13.17;84.47;96174.52;106581;1275;22707;-62
2023/05/20 05:26:38;;;;;;;17.80;12.80;;;;;;;13.33;83.53;96169.29;106733;1275;24366;-62
2023/05/20 05:29:06;;;;;;;16.80;12.00;;;;;;;13.44;82.38;96170.83;106614;1275;24044;-62
2023/05/20 05:31:38;;;;;;;15.40;12.50;;;;;;;13.51;81.75;96171.21;106657;1275;22776;-62
2023/05/20 05:34:07;;;;;;;22.90;12.40;;;;;;;13.64;82.05;96179.23;106637;1275;22521;-62
2023/05/20 05:36:38;;;;;;;21.70;12.40;;;;;;;13.79;81.44;96180.35;106686;1275;22783;-62
2023/05/20 05:39:07;;;;;;;18.40;11.40;;;;;;;13.93;81.71;96180.91;106602;1275;22604;-62
2023/05/20 05:41:35;;;;;;;13.00;10.00;;;;;;;14.08;81.78;96183.04;106679;1275;22594;-62
2023/05/20 05:44:04;;;;;;;10.30;8.20;;;;;;;14.22;81.30;96185.91;106681;1275;22524;-62
2023/05/20 05:46:32;;;;;;;12.00;8.60;;;;;;;14.34;79.90;96184.04;106658;1275;24374;-62
2023/05/20 05:49:01;;;;;;;14.90;10.10;;;;;;;14.43;78.81;96184.72;106528;1275;25393;-62
2023/05/20 05:51:29;;;;;;;11.20;9.10;;;;;;;14.53;78.93;96181.83;106582;1275;22522;-62
2023/05/20 05:53:58;;;;;;;12.30;9.50;;;;;;;14.65;78.00;96187.37;106653;1275;22517;-62
2023/05/20 05:56:26;;;;;;;14.30;9.60;;;;;;;14.76;77.42;96187.30;106562;1275;24228;-62
2023/05/20 05:58:55;;;;;;;11.90;9.30;;;;;;;14.86;76.27;96191.64;106583;1275;25071;-62
2023/05/20 06:01:24;;;;;;;12.60;8.40;;;;;;;14.92;75.59;96193.95;106642;1275;22592;-63
2023/05/20 06:03:52;;;;;;;10.80;9.10;;;;;;;15.01;75.50;96188.92;106612;1275;25376;-62
2023/05/20 06:06:21;;;;;;;11.30;9.20;;;;;;;15.09;74.31;96188.37;106659;1272;22532;-62
2023/05/20 06:08:49;;;;;;;13.70;9.40;;;;;;;15.17;74.39;96180.20;106673;1275;26492;-62
2023/05/20 06:11:18;;;;;;;12.80;9.80;;;;;;;15.26;74.90;96177.29;106635;1253;24037;-62
2023/05/20 06:13:46;;;;;;;11.20;9.00;;;;;;;15.35;74.42;96178.79;106677;1275;26634;-62
2023/05/20 06:16:15;;;;;;;12.50;9.40;;;;;;;15.44;73.29;96179.09;106647;1275;25396;-62
2023/05/20 06:18:48;;;;;;;13.00;9.40;;;;;;;15.53;72.74;96174.93;106594;1275;25217;-62
2023/05/20 06:21:18;;;;;;;14.30;9.60;;;;;;;15.60;72.37;96173.10;106716;1275;24342;-63
2023/05/20 06:23:46;;;;;;;13.90;9.60;;;;;;;15.72;72.60;96172.43;106626;1275;25310;-62
2023/05/20 06:26:14;;;;;;;12.20;9.20;;;;;;;15.85;72.74;96175.80;106572;1275;24358;-62
2023/05/20 06:28:42;;;;;;;10.30;9.20;;;;;;;15.95;72.65;96172.63;106585;1275;24044;-62
2023/05/20 06:31:11;;;;;;;13.20;9.60;;;;;;;16.08;71.89;96167.84;106631;1275;22598;-62
2023/05/20 06:33:39;;;;;;;14.50;9.20;;;;;;;16.18;70.83;96166.08;106754;1275;24369;-63
2023/05/20 06:36:10;;;;;;;11.50;9.50;;;;;;;16.28;70.48;96166.63;106723;1275;22518;-62
2023/05/20 06:38:39;;;;;;;68.40;40.90;;;;;;;16.41;70.79;96165.17;106522;1275;23006;-62
2023/05/20 06:41:07;;;;;;;13.90;10.50;;;;;;;16.56;71.22;96159.18;106704;1275;22524;-62
2023/05/20 06:43:36;;;;;;;10.30;8.40;;;;;;;16.69;70.56;96158.38;106675;1275;22528;-62
2023/05/20 06:46:08;;;;;;;13.80;9.10;;;;;;;16.80;69.75;96157.86;106696;1275;25329;-62
2023/05/20 06:48:46;;;;;;;14.10;9.40;;;;;;;16.92;69.45;96156.59;106676;1275;24405;-63
2023/05/20 06:51:14;;;;;;;11.90;9.70;;;;;;;16.97;67.79;96154.42;106581;1275;22532;-63
2023/05/20 06:53:45;;;;;;;11.90;9.40;;;;;;;17.05;68.60;96155.40;106686;1275;22533;-62
2023/05/20 06:56:14;;;;;;;13.40;9.40;;;;;;;17.14;67.70;96154.92;106626;1275;23880;-62
2023/05/20 06:58:43;;;;;;;11.30;9.80;;;;;;;17.24;68.68;96155.45;106536;1275;129537;-62
2023/05/20 07:01:12;;;;;;;22.50;17.50;;;;;;;17.37;69.02;96149.45;106731;1275;24350;-62
2023/05/20 07:03:43;;;;;;;55.20;45.60;;;;;;;17.50;68.14;96149.69;106665;1275;24224;-62
2023/05/20 07:06:11;;;;;;;13.80;11.00;;;;;;;17.53;66.05;96146.18;106771;1275;22517;-63
2023/05/20 07:08:40;;;;;;;12.40;10.10;;;;;;;17.62;67.28;96143.39;106624;1275;22513;-62
2023/05/20 07:11:08;;;;;;;26.50;21.70;;;;;;;17.73;67.06;96138.90;106711;1275;22524;-61
2023/05/20 07:13:36;;;;;;;11.20;9.90;;;;;;;17.85;67.43;96137.76;106649;1275;23981;-61
2023/05/20 07:16:06;;;;;;;10.80;9.70;;;;;;;17.95;66.57;96133.78;106705;1275;22656;-61
2023/05/20 07:18:36;;;;;;;13.90;9.90;;;;;;;18.10;67.56;96135.53;106732;1275;24249;-62
2023/05/20 07:21:04;;;;;;;11.30;9.90;;;;;;;18.24;66.95;96134.96;106698;1275;22716;-61
2023/05/20 07:23:44;;;;;;;15.40;9.90;;;;;;;18.35;66.12;96130.06;106669;1275;22797;-61
2023/05/20 07:26:12;;;;;;;12.50;10.20;;;;;;;18.47;65.98;96129.77;106680;1275;22651;-61
2023/05/20 07:28:40;;;;;;;12.20;9.70;;;;;;;18.60;66.59;96130.83;106564;1275;25450;-62
2023/05/20 07:31:08;;;;;;;13.20;9.50;;;;;;;18.76;65.36;96130.19;106664;1275;22625;-61
2023/05/20 07:33:42;;;;;;;10.00;8.80;;;;;;;18.89;64.96;96124.64;106676;1275;24035;-61
2023/05/20 07:36:10;;;;;;;12.10;9.10;;;;;;;19.00;64.09;96123.98;106589;1275;22519;-62
2023/05/20 07:38:40;;;;;;;11.20;8.40;;;;;;;19.10;63.53;96120.36;106627;1275;26672;-61
2023/05/20 07:41:25;;;;;;;10.10;9.00;;;;;;;19.13;62.56;96122.53;106720;1275;22534;-61
2023/05/20 07:43:53;;;;;;;14.20;8.30;;;;;;;19.19;62.01;96120.45;106696;1275;22528;-61
2023/05/20 07:46:21;;;;;;;9.70;8.50;;;;;;;19.25;61.28;96117.36;106704;1264;22881;-61
2023/05/20 07:48:49;;;;;;;11.90;8.80;;;;;;;19.36;61.15;96117.60;106597;1275;22528;-61
2023/05/20 07:51:18;;;;;;;10.30;8.70;;;;;;;19.40;59.98;96119.54;106555;1275;22527;-61
2023/05/20 07:53:46;;;;;;;10.60;8.20;;;;;;;19.52;60.72;96117.93;106717;1275;25457;-61
2023/05/20 07:56:15;;;;;;;9.70;8.40;;;;;;;19.59;59.15;96114.39;106602;1275;22664;-62
2023/05/20 07:58:52;;;;;;;9.20;8.00;;;;;;;19.69;60.32;96112.52;106675;1275;22537;-61
2023/05/20 08:01:21;;;;;;;11.10;8.00;;;;;;;19.82;59.94;96111.20;106676;1275;24208;-62
2023/05/20 08:03:49;;;;;;;9.20;7.90;;;;;;;19.94;59.07;96107.81;106709;1275;25111;-62
2023/05/20 08:06:23;;;;;;;12.30;8.80;;;;;;;20.05;57.78;96097.29;106661;1275;25528;-61
2023/05/20 08:08:54;;;;;;;11.70;8.20;;;;;;;20.17;58.47;96099.20;106633;1273;22540;-61
2023/05/20 08:11:27;;;;;;;9.80;7.90;;;;;;;20.27;57.89;96094.79;106658;1275;22671;-61
2023/05/20 08:13:56;;;;;;;10.00;8.20;;;;;;;20.35;56.83;96094.61;106724;1275;22508;-62
2023/05/20 08:16:27;;;;;;;10.20;8.40;;;;;;;20.43;57.05;96095.97;106658;1275;22642;-62
2023/05/20 08:18:55;;;;;;;9.40;8.30;;;;;;;20.52;56.47;96098.73;106708;1275;22516;-61
2023/05/20 08:21:24;;;;;;;10.40;8.50;;;;;;;20.60;55.83;96092.85;106701;1275;25322;-61
2023/05/20 08:23:51;;;;;;;9.20;7.70;;;;;;;20.70;56.21;96090.35;106583;1275;25217;-62
2023/05/20 08:26:20;;;;;;;9.50;7.70;;;;;;;20.80;56.17;96088.09;106638;1275;25337;-62
2023/05/20 08:28:50;;;;;;;12.70;8.00;;;;;;;20.88;54.93;96093.37;106705;1275;25347;-62
2023/05/20 08:31:18;;;;;;;9.50;7.60;;;;;;;20.97;54.55;96093.27;106713;1275;22516;-62
2023/05/20 08:33:46;;;;;;;10.20;7.70;;;;;;;21.07;54.20;96098.64;106574;1275;22650;-61
2023/05/20 08:36:15;;;;;;;13.30;8.00;;;;;;;21.10;52.06;96101.35;106642;1270;25103;-61
2023/05/20 08:38:44;;;;;;;174.80;38.30;;;;;;;21.03;51.93;96096.71;106696;1275;22647;-62
2023/05/20 08:41:12;;;;;;;104.60;23.00;;;;;;;21.13;53.24;96095.44;106735;1275;22521;-61
2023/05/20 08:43:43;;;;;;;20.00;10.20;;;;;;;21.29;53.34;96089.63;106675;1274;22686;-62
2023/05/20 08:46:11;;;;;;;391.50;77.70;;;;;;;21.48;54.09;96089.19;106622;1256;22517;-62
2023/05/20 08:48:41;;;;;;;13.90;7.60;;;;;;;21.58;52.86;96095.27;106670;1275;22540;-63
2023/05/20 08:51:10;;;;;;;90.60;22.90;;;;;;;21.61;51.55;96095.98;106674;1275;22528;-62
2023/05/20 08:53:38;;;;;;;131.50;30.20;;;;;;;21.63;51.25;96096.95;106665;1275;22525;-62
2023/05/20 08:56:08;;;;;;;567.60;135.60;;;;;;;21.70;51.93;96097.98;106684;1267;22635;-62
2023/05/20 08:58:36;;;;;;;113.10;25.90;;;;;;;21.77;50.72;96098.73;106704;1275;22600;-62
2023/05/20 09:01:06;;;;;;;77.30;19.50;;;;;;;21.72;48.87;96098.47;106666;1275;22584;-62
2023/05/20 09:03:34;;;;;;;20.70;8.90;;;;;;;21.73;49.37;96093.38;106673;1275;26521;-62
2023/05/20 09:06:07;;;;;;;11.80;8.00;;;;;;;21.85;50.77;96089.33;106600;1275;25412;-62
2023/05/20 09:08:36;;;;;;;8.90;7.40;;;;;;;22.01;50.96;96087.33;106648;1275;22661;-62
2023/05/20 09:11:04;;;;;;;9.20;7.90;;;;;;;22.19;51.23;96083.85;106654;1275;22576;-62
2023/05/20 09:13:32;;;;;;;9.30;7.80;;;;;;;22.38;51.42;96083.83;106707;1275;22520;-62
2023/05/20 09:16:01;;;;;;;10.00;7.60;;;;;;;22.50;50.28;96081.52;106737;1275;25396;-60
2023/05/20 09:18:30;;;;;;;9.40;7.80;;;;;;;22.57;48.43;96081.14;106724;1275;25216;-61
2023/05/20 09:21:05;;;;;;;10.00;7.90;;;;;;;22.61;49.07;96076.98;106751;1275;24196;-61
2023/05/20 09:23:37;;;;;;;11.40;7.90;;;;;;;22.72;48.58;96074.92;106561;1275;22808;-61
2023/05/20 09:26:05;;;;;;;8.60;7.70;;;;;;;22.85;49.08;96071.39;106688;1275;22536;-61
2023/05/20 09:28:37;;;;;;;9.80;7.60;;;;;;;22.98;48.41;96074.95;106681;1275;23259;-61
2023/05/20 09:31:07;;;;;;;8.00;7.00;;;;;;;23.08;47.24;96069.70;106753;1275;23498;-61
2023/05/20 09:33:36;;;;;;;10.50;7.70;;;;;;;23.17;47.03;96069.34;106669;1275;22647;-61
2023/05/20 09:36:08;;;;;;;9.30;7.20;;;;;;;23.30;46.90;96076.65;106673;1275;23017;-61
2023/05/20 09:38:38;;;;;;;7.60;6.70;;;;;;;23.39;44.84;96071.23;106737;1275;22528;-61
2023/05/20 09:41:10;;;;;;;8.90;6.80;;;;;;;23.47;44.54;96070.55;106728;1275;24371;-62
2023/05/20 09:43:39;;;;;;;8.90;7.60;;;;;;;23.57;44.08;96070.49;106652;1275;24382;-61
2023/05/20 09:46:08;;;;;;;11.70;7.80;;;;;;;23.52;42.38;96067.52;106740;1275;22531;-61
2023/05/20 09:48:37;;;;;;;12.00;8.20;;;;;;;23.57;43.94;96066.52;106735;1275;22524;-61
2023/05/20 09:51:06;;;;;;;9.00;6.80;;;;;;;23.64;44.02;96061.05;106693;1275;25385;-61
2023/05/20 09:53:35;;;;;;;9.80;7.50;;;;;;;23.83;44.64;96055.96;106720;1275;22687;-61
2023/05/20 09:56:04;;;;;;;7.90;7.00;;;;;;;23.98;43.62;96052.24;106653;1275;22521;-62
2023/05/20 09:58:37;;;;;;;7.80;6.70;;;;;;;24.12;42.67;96050.08;106777;1272;22527;-61
2023/05/20 10:01:06;;;;;;;7.80;6.90;;;;;;;24.21;42.78;96043.04;106701;1275;25419;-61
2023/05/20 10:03:35;;;;;;;8.20;7.20;;;;;;;24.24;42.05;96045.94;106677;1275;22558;-61
2023/05/20 10:06:16;;;;;;;9.30;7.00;;;;;;;24.28;42.11;96040.95;106758;1275;22647;-61
2023/05/20 10:08:50;;;;;;;7.70;6.90;;;;;;;24.34;42.98;96039.47;106677;1275;24369;-61
2023/05/20 10:11:35;;;;;;;11.60;6.60;;;;;;;24.47;41.63;96036.66;106653;1275;25614;-61
2023/05/20 10:14:19;;;;;;;8.40;6.50;;;;;;;24.35;39.72;96034.35;106693;1275;22524;-61
2023/05/20 10:16:53;;;;;;;7.50;6.70;;;;;;;24.35;40.71;96032.07;106696;1275;24353;-61
2023/05/20 10:19:31;;;;;;;9.70;6.50;;;;;;;24.36;41.06;96028.19;106687;1275;25220;-61
2023/05/20 10:22:10;;;;;;;8.50;6.80;;;;;;;24.44;40.93;96026.81;106697;1275;24249;-62
2023/05/20 10:24:43;;;;;;;9.00;6.40;;;;;;;24.56;41.92;96025.80;106743;1275;22610;-61
2023/05/20 10:27:14;;;;;;;10.10;6.70;;;;;;;24.74;41.68;96022.81;106685;1275;22520;-61
2023/05/20 10:29:56;;;;;;;7.90;7.10;;;;;;;24.81;41.10;96026.65;106723;1275;24329;-61
2023/05/20 10:32:27;;;;;;;7.40;6.30;;;;;;;24.93;40.49;96018.27;106689;1275;24195;-62
2023/05/20 10:35:03;;;;;;;9.00;6.70;;;;;;;25.07;41.02;96018.52;106648;1275;22618;-61
2023/05/20 10:37:44;;;;;;;8.20;5.90;;;;;;;25.14;40.01;96016.61;106796;1275;25492;-61
2023/05/20 10:40:14;;;;;;;8.10;6.40;;;;;;;25.16;40.17;96010.38;106717;1275;22537;-62
2023/05/20 10:42:43;;;;;;;7.90;6.40;;;;;;;25.17;39.07;96002.38;106693;1270;22640;-62
2023/05/20 10:45:23;;;;;;;9.20;6.30;;;;;;;25.32;40.17;96000.80;106681;1275;25478;-62
2023/05/20 10:47:58;;;;;;;8.30;6.70;;;;;;;25.46;40.58;96001.98;106670;1275;24464;-61
2023/05/20 10:50:35;;;;;;;9.50;6.20;;;;;;;25.69;41.26;95998.20;106593;1275;25611;-62
2023/05/20 10:53:05;;;;;;;7.90;6.10;;;;;;;25.87;39.43;95998.11;106710;1275;22657;-61
2023/05/20 10:55:48;;;;;;;8.10;6.10;;;;;;;25.85;37.35;95994.31;106671;1275;24079;-61
2023/05/20 10:58:18;;;;;;;9.20;6.80;;;;;;;25.75;36.78;95994.86;106741;1275;22562;-61
2023/05/20 11:00:54;;;;;;;7.20;6.50;;;;;;;25.68;37.33;95988.31;106691;1275;24471;-61
2023/05/20 11:03:24;;;;;;;8.40;6.10;;;;;;;25.83;38.44;95983.32;106671;1275;22632;-62
2023/05/20 11:05:53;;;;;;;8.10;6.90;;;;;;;25.86;36.54;95979.86;106617;1275;22643;-62
2023/05/20 11:08:21;;;;;;;8.80;6.30;;;;;;;25.81;36.69;95977.32;106689;1275;25498;-61
2023/05/20 11:10:56;;;;;;;8.00;6.50;;;;;;;25.86;37.21;95971.21;106672;1275;22528;-62
2023/05/20 11:13:25;;;;;;;7.90;6.20;;;;;;;25.97;37.32;95973.42;106724;1275;24251;-61
2023/05/20 11:15:54;;;;;;;7.10;6.00;;;;;;;26.14;37.17;95964.28;106666;1275;22788;-61
2023/05/20 11:18:22;;;;;;;9.00;6.30;;;;;;;26.06;34.81;95961.24;106753;1275;25265;-61
2023/05/20 11:20:53;;;;;;;6.50;5.80;;;;;;;25.99;35.43;95955.13;106700;1275;22566;-61
2023/05/20 11:23:22;;;;;;;7.10;5.90;;;;;;;26.03;35.87;95953.16;106737;1275;22770;-62
2023/05/20 11:25:52;;;;;;;8.10;5.70;;;;;;;26.08;33.72;95952.27;106729;1275;22521;-61
2023/05/20 11:28:21;;;;;;;6.90;6.20;;;;;;;26.22;34.61;95952.14;106724;1275;26633;-61
2023/05/20 11:30:51;;;;;;;11.50;6.00;;;;;;;26.28;34.45;95944.08;106679;1275;22697;-61
2023/05/20 11:33:19;;;;;;;7.60;6.00;;;;;;;26.10;33.07;95947.94;106703;1275;26151;-61